sensor_id;sensor_type;location;lat;lon;timestamp;pressure;altitude;pressure_sealevel;temperature;humidity
38227;BME280;24026;49.446;8.576;2023-09-19T00:01:04;100055.91;;;24.03;53.87
38227;BME280;24026;49.446;8.576;2023-09-19T00:03:27;100052.44;;;24.02;53.69
38227;BME280;24026;49.446;8.576;2023-09-19T00:05:48;100058.63;;;24.03;53.82
38227;BME280;24026;49.446;8.576;2023-09-19T00:08:10;100053.22;;;24.03;53.58
38227;BME280;24026;49.446;8.576;2023-09-19T00:10:32;100051.63;;;24.02;53.93
38227;BME280;24026;49.446;8.576;2023-09-19T00:12:55;100059.75;;;24.02;53.90
38227;BME280;24026;49.446;8.576;2023-09-19T00:15:15;100058.97;;;24.01;53.76
38227;BME280;24026;49.446;8.576;2023-09-19T00:17:37;100058.19;;;24.01;53.75
38227;BME280;24026;49.446;8.576;2023-09-19T00:20:00;100058.19;;;24.01;53.79
38227;BME280;24026;49.446;8.576;2023-09-19T00:22:33;100064.75;;;24.00;53.69
38227;BME280;24026;49.446;8.576;2023-09-19T00:24:53;100058.53;;;23.99;53.78
38227;BME280;24026;49.446;8.576;2023-09-19T00:27:14;100066.66;;;23.99;53.75
38227;BME280;24026;49.446;8.576;2023-09-19T00:29:34;100068.56;;;23.99;53.78
38227;BME280;24026;49.446;8.576;2023-09-19T00:31:55;100071.28;;;23.99;53.85
38227;BME280;24026;49.446;8.576;2023-09-19T00:34:17;100072.44;;;23.98;53.79
38227;BME280;24026;49.446;8.576;2023-09-19T00:36:37;100070.50;;;23.98;53.98
38227;BME280;24026;49.446;8.576;2023-09-19T00:39:03;100069.72;;;23.98;53.72
38227;BME280;24026;49.446;8.576;2023-09-19T00:41:25;100075.16;;;23.98;53.72
38227;BME280;24026;49.446;8.576;2023-09-19T00:43:46;100074.38;;;23.97;53.79
38227;BME280;24026;49.446;8.576;2023-09-19T00:46:07;100078.97;;;23.97;53.87
38227;BME280;24026;49.446;8.576;2023-09-19T00:48:28;100080.91;;;23.96;53.70
38227;BME280;24026;49.446;8.576;2023-09-19T00:50:49;100073.88;;;23.95;53.91
38227;BME280;24026;49.446;8.576;2023-09-19T00:53:14;100082.38;;;23.94;53.81
38227;BME280;24026;49.446;8.576;2023-09-19T00:55:36;100083.50;;;23.93;53.77
38227;BME280;24026;49.446;8.576;2023-09-19T00:58:03;100086.22;;;23.93;53.85
38227;BME280;24026;49.446;8.576;2023-09-19T01:00:26;100078.09;;;23.93;53.79
38227;BME280;24026;49.446;8.576;2023-09-19T01:02:47;100091.66;;;23.93;53.85
38227;BME280;24026;49.446;8.576;2023-09-19T01:05:08;100081.91;;;23.92;53.78
38227;BME280;24026;49.446;8.576;2023-09-19T01:07:31;100086.56;;;23.91;54.06
38227;BME280;24026;49.446;8.576;2023-09-19T01:09:52;100091.22;;;23.91;53.84
38227;BME280;24026;49.446;8.576;2023-09-19T01:12:16;100091.22;;;23.91;53.82
38227;BME280;24026;49.446;8.576;2023-09-19T01:17:16;100091.53;;;23.89;53.91
38227;BME280;24026;49.446;8.576;2023-09-19T01:20:06;100093.78;;;23.87;53.94
38227;BME280;24026;49.446;8.576;2023-09-19T01:22:48;100095.72;;;23.86;54.00
38227;BME280;24026;49.446;8.576;2023-09-19T01:25:33;100096.06;;;23.85;53.96
38227;BME280;24026;49.446;8.576;2023-09-19T01:28:14;100094.13;;;23.85;54.06
38227;BME280;24026;49.446;8.576;2023-09-19T01:30:46;100096.38;;;23.83;54.05
38227;BME280;24026;49.446;8.576;2023-09-19T01:33:07;100093.66;;;23.83;53.92
38227;BME280;24026;49.446;8.576;2023-09-19T01:35:28;100095.59;;;23.83;54.05
38227;BME280;24026;49.446;8.576;2023-09-19T01:37:49;100098.31;;;23.83;54.31
38227;BME280;24026;49.446;8.576;2023-09-19T01:40:13;100109.16;;;23.83;53.95
38227;BME280;24026;49.446;8.576;2023-09-19T01:45:17;100105.66;;;23.82;53.84
38227;BME280;24026;49.446;8.576;2023-09-19T01:47:51;100107.09;;;23.80;54.08
38227;BME280;24026;49.446;8.576;2023-09-19T01:50:19;100109.03;;;23.79;54.07
38227;BME280;24026;49.446;8.576;2023-09-19T01:53:33;100107.44;;;23.78;54.11
38227;BME280;24026;49.446;8.576;2023-09-19T01:55:47;100104.25;;;23.76;54.06
38227;BME280;24026;49.446;8.576;2023-09-19T01:58:27;100115.13;;;23.76;54.21
38227;BME280;24026;49.446;8.576;2023-09-19T02:00:50;100117.38;;;23.74;54.14
38227;BME280;24026;49.446;8.576;2023-09-19T02:03:12;100118.94;;;23.75;53.98
38227;BME280;24026;49.446;8.576;2023-09-19T02:05:34;100117.38;;;23.74;54.14
38227;BME280;24026;49.446;8.576;2023-09-19T02:07:55;100120.09;;;23.74;54.11
38227;BME280;24026;49.446;8.576;2023-09-19T02:10:16;100136.38;;;23.74;54.48
38227;BME280;24026;49.446;8.576;2023-09-19T02:12:37;100137.50;;;23.73;54.20
38227;BME280;24026;49.446;8.576;2023-09-19T02:14:58;100139.09;;;23.74;54.29
38227;BME280;24026;49.446;8.576;2023-09-19T02:17:19;100141.00;;;23.74;54.36
38227;BME280;24026;49.446;8.576;2023-09-19T02:19:39;100133.19;;;23.72;54.19
38227;BME280;24026;49.446;8.576;2023-09-19T02:22:01;100137.50;;;23.73;54.33
38227;BME280;24026;49.446;8.576;2023-09-19T02:24:27;100137.50;;;23.73;54.19
38227;BME280;24026;49.446;8.576;2023-09-19T02:26:48;100142.91;;;23.73;54.12
38227;BME280;24026;49.446;8.576;2023-09-19T02:29:08;100146.75;;;23.72;54.29
38227;BME280;24026;49.446;8.576;2023-09-19T02:31:32;100150.59;;;23.71;54.39
38227;BME280;24026;49.446;8.576;2023-09-19T02:33:53;100155.69;;;23.73;54.27
38227;BME280;24026;49.446;8.576;2023-09-19T02:36:14;100156.03;;;23.71;54.39
38227;BME280;24026;49.446;8.576;2023-09-19T02:38:37;100160.31;;;23.72;54.35
38227;BME280;24026;49.446;8.576;2023-09-19T02:40:57;100159.53;;;23.72;54.28
38227;BME280;24026;49.446;8.576;2023-09-19T02:43:18;100173.88;;;23.72;54.16
38227;BME280;24026;49.446;8.576;2023-09-19T02:46:16;100159.53;;;23.72;54.32
38227;BME280;24026;49.446;8.576;2023-09-19T02:48:37;100172.31;;;23.71;54.45
38227;BME280;24026;49.446;8.576;2023-09-19T02:50:57;100171.53;;;23.71;54.38
38227;BME280;24026;49.446;8.576;2023-09-19T02:53:18;100173.09;;;23.72;54.43
38227;BME280;24026;49.446;8.576;2023-09-19T02:55:39;100175.81;;;23.72;54.33
38227;BME280;24026;49.446;8.576;2023-09-19T02:58:03;100183.94;;;23.72;54.51
38227;BME280;24026;49.446;8.576;2023-09-19T03:00:25;100176.94;;;23.71;54.39
38227;BME280;24026;49.446;8.576;2023-09-19T03:02:48;100176.94;;;23.71;54.38
38227;BME280;24026;49.446;8.576;2023-09-19T03:05:08;100177.72;;;23.71;54.43
38227;BME280;24026;49.446;8.576;2023-09-19T03:07:31;100181.56;;;23.70;54.36
38227;BME280;24026;49.446;8.576;2023-09-19T03:09:52;100178.06;;;23.70;54.50
38227;BME280;24026;49.446;8.576;2023-09-19T03:12:13;100182.72;;;23.69;54.45
38227;BME280;24026;49.446;8.576;2023-09-19T03:14:36;100182.72;;;23.69;54.41
38227;BME280;24026;49.446;8.576;2023-09-19T03:16:56;100178.41;;;23.68;54.47
38227;BME280;24026;49.446;8.576;2023-09-19T03:19:16;100190.34;;;23.67;54.45
38227;BME280;24026;49.446;8.576;2023-09-19T03:21:37;100191.97;;;23.68;54.41
38227;BME280;24026;49.446;8.576;2023-09-19T03:23:59;100193.06;;;23.67;54.28
38227;BME280;24026;49.446;8.576;2023-09-19T03:26:20;100189.56;;;23.66;54.35
38227;BME280;24026;49.446;8.576;2023-09-19T03:28:40;100191.50;;;23.66;54.41
38227;BME280;24026;49.446;8.576;2023-09-19T03:31:02;100200.44;;;23.66;54.41
38227;BME280;24026;49.446;8.576;2023-09-19T03:33:23;100208.91;;;23.65;54.34
38227;BME280;24026;49.446;8.576;2023-09-19T03:35:52;100195.34;;;23.65;54.48
38227;BME280;24026;49.446;8.576;2023-09-19T03:38:12;100208.44;;;23.63;54.36
38227;BME280;24026;49.446;8.576;2023-09-19T03:40:33;100213.53;;;23.64;54.34
38227;BME280;24026;49.446;8.576;2023-09-19T03:42:53;100219.28;;;23.63;54.54
38227;BME280;24026;49.446;8.576;2023-09-19T03:45:14;100218.50;;;23.62;54.47
38227;BME280;24026;49.446;8.576;2023-09-19T03:47:34;100217.69;;;23.62;54.59
38227;BME280;24026;49.446;8.576;2023-09-19T03:49:55;100218.50;;;23.62;54.25
38227;BME280;24026;49.446;8.576;2023-09-19T03:52:15;100218.03;;;23.60;54.47
38227;BME280;24026;49.446;8.576;2023-09-19T03:54:36;100226.97;;;23.61;54.35
38227;BME280;24026;49.446;8.576;2023-09-19T03:56:56;100211.81;;;23.60;54.47
38227;BME280;24026;49.446;8.576;2023-09-19T03:59:16;100216.47;;;23.59;54.46
38227;BME280;24026;49.446;8.576;2023-09-19T04:01:38;100226.50;;;23.59;54.42
38227;BME280;24026;49.446;8.576;2023-09-19T04:04:01;100218.34;;;23.59;54.82
38227;BME280;24026;49.446;8.576;2023-09-19T04:06:28;100219.50;;;23.58;54.39
38227;BME280;24026;49.446;8.576;2023-09-19T04:08:48;100221.44;;;23.57;54.46
38227;BME280;24026;49.446;8.576;2023-09-19T04:11:09;100226.84;;;23.57;54.45
38227;BME280;24026;49.446;8.576;2023-09-19T04:13:30;100236.09;;;23.56;54.51
38227;BME280;24026;49.446;8.576;2023-09-19T04:15:50;100227.19;;;23.56;54.44
38227;BME280;24026;49.446;8.576;2023-09-19T04:18:11;100235.31;;;23.56;54.54
38227;BME280;24026;49.446;8.576;2023-09-19T04:20:32;100239.16;;;23.55;54.57
38227;BME280;24026;49.446;8.576;2023-09-19T04:22:52;100231.00;;;23.55;54.49
38227;BME280;24026;49.446;8.576;2023-09-19T04:25:13;100236.44;;;23.55;54.20
38227;BME280;24026;49.446;8.576;2023-09-19T04:27:33;100238.38;;;23.54;54.57
38227;BME280;24026;49.446;8.576;2023-09-19T04:29:54;100239.47;;;23.53;54.36
38227;BME280;24026;49.446;8.576;2023-09-19T04:32:19;100244.13;;;23.53;54.45
38227;BME280;24026;49.446;8.576;2023-09-19T04:34:39;100245.22;;;23.52;54.32
38227;BME280;24026;49.446;8.576;2023-09-19T04:37:00;100248.72;;;23.52;54.27
38227;BME280;24026;49.446;8.576;2023-09-19T04:39:20;100249.09;;;23.51;54.47
38227;BME280;24026;49.446;8.576;2023-09-19T04:41:41;100249.09;;;23.51;54.30
38227;BME280;24026;49.446;8.576;2023-09-19T04:44:02;100252.59;;;23.51;54.31
38227;BME280;24026;49.446;8.576;2023-09-19T04:46:24;100255.63;;;23.49;54.22
38227;BME280;24026;49.446;8.576;2023-09-19T04:48:46;100249.41;;;23.49;54.23
38227;BME280;24026;49.446;8.576;2023-09-19T04:51:07;100252.91;;;23.49;54.36
38227;BME280;24026;49.446;8.576;2023-09-19T04:53:28;100261.38;;;23.48;54.11
38227;BME280;24026;49.446;8.576;2023-09-19T04:55:51;100255.16;;;23.47;54.03
38227;BME280;24026;49.446;8.576;2023-09-19T04:58:15;100258.22;;;23.46;54.20
38227;BME280;24026;49.446;8.576;2023-09-19T05:00:36;100271.78;;;23.46;53.91
38227;BME280;24026;49.446;8.576;2023-09-19T05:02:57;100267.47;;;23.45;53.98
38227;BME280;24026;49.446;8.576;2023-09-19T05:05:18;100273.66;;;23.45;53.91
38227;BME280;24026;49.446;8.576;2023-09-19T05:07:43;100271.47;;;23.39;54.23
38227;BME280;24026;49.446;8.576;2023-09-19T05:10:04;100277.72;;;23.39;54.00
38227;BME280;24026;49.446;8.576;2023-09-19T05:12:28;100276.25;;;23.42;53.58
38227;BME280;24026;49.446;8.576;2023-09-19T05:14:49;100290.94;;;23.41;53.91
38227;BME280;24026;49.446;8.576;2023-09-19T05:17:10;100291.72;;;23.41;53.63
38227;BME280;24026;49.446;8.576;2023-09-19T05:19:30;100294.00;;;23.39;53.80
38227;BME280;24026;49.446;8.576;2023-09-19T05:21:51;100304.03;;;23.39;53.72
38227;BME280;24026;49.446;8.576;2023-09-19T05:24:12;100305.16;;;23.38;53.60
38227;BME280;24026;49.446;8.576;2023-09-19T05:26:34;100304.69;;;23.36;53.50
38227;BME280;24026;49.446;8.576;2023-09-19T05:28:55;100307.75;;;23.34;53.17
38227;BME280;24026;49.446;8.576;2023-09-19T05:31:15;100307.25;;;23.32;53.11
38227;BME280;24026;49.446;8.576;2023-09-19T05:33:37;100311.88;;;23.31;52.92
38227;BME280;24026;49.446;8.576;2023-09-19T05:35:58;100310.66;;;23.29;52.91
38227;BME280;24026;49.446;8.576;2023-09-19T05:38:19;100312.88;;;23.27;52.65
38227;BME280;24026;49.446;8.576;2023-09-19T05:40:40;100309.38;;;23.26;52.72
38227;BME280;24026;49.446;8.576;2023-09-19T05:43:05;100323.44;;;23.20;52.84
38227;BME280;24026;49.446;8.576;2023-09-19T05:45:26;100316.91;;;23.21;52.81
38227;BME280;24026;49.446;8.576;2023-09-19T05:47:51;100310.34;;;23.22;52.81
38227;BME280;24026;49.446;8.576;2023-09-19T05:50:16;100314.22;;;23.21;52.74
38227;BME280;24026;49.446;8.576;2023-09-19T05:52:37;100326.63;;;23.22;52.73
38227;BME280;24026;49.446;8.576;2023-09-19T05:54:57;100312.28;;;23.21;52.73
38227;BME280;24026;49.446;8.576;2023-09-19T05:57:18;100310.34;;;23.22;52.79
38227;BME280;24026;49.446;8.576;2023-09-19T05:59:39;100308.47;;;23.22;52.74
38227;BME280;24026;49.446;8.576;2023-09-19T06:02:00;100306.53;;;23.23;52.80
38227;BME280;24026;49.446;8.576;2023-09-19T06:04:20;100320.09;;;23.23;52.66
38227;BME280;24026;49.446;8.576;2023-09-19T06:06:41;100317.38;;;23.23;52.58
38227;BME280;24026;49.446;8.576;2023-09-19T06:09:02;100330.16;;;23.22;52.51
38227;BME280;24026;49.446;8.576;2023-09-19T06:11:25;100330.16;;;23.22;52.68
38227;BME280;24026;49.446;8.576;2023-09-19T06:13:46;100339.06;;;23.23;52.70
38227;BME280;24026;49.446;8.576;2023-09-19T06:16:08;100338.28;;;23.22;52.74
38227;BME280;24026;49.446;8.576;2023-09-19T06:18:29;100348.31;;;23.22;52.77
38227;BME280;24026;49.446;8.576;2023-09-19T06:20:54;100348.31;;;23.22;52.64
38227;BME280;24026;49.446;8.576;2023-09-19T06:23:16;100356.44;;;23.22;52.71
38227;BME280;24026;49.446;8.576;2023-09-19T06:25:37;100361.84;;;23.22;52.73
38227;BME280;24026;49.446;8.576;2023-09-19T06:27:57;100359.97;;;23.22;52.65
38227;BME280;24026;49.446;8.576;2023-09-19T06:30:18;100361.53;;;23.23;52.60
38227;BME280;24026;49.446;8.576;2023-09-19T06:32:39;100363.13;;;23.24;52.30
38227;BME280;24026;49.446;8.576;2023-09-19T06:35:00;100362.34;;;23.24;52.55
38227;BME280;24026;49.446;8.576;2023-09-19T06:37:21;100367.78;;;23.24;52.37
38227;BME280;24026;49.446;8.576;2023-09-19T06:39:42;100356.94;;;23.24;52.37
38227;BME280;24026;49.446;8.576;2023-09-19T06:42:03;100357.72;;;23.24;52.42
38227;BME280;24026;49.446;8.576;2023-09-19T06:44:24;100357.38;;;23.26;52.31
38227;BME280;24026;49.446;8.576;2023-09-19T06:46:44;100370.13;;;23.25;52.27
38227;BME280;24026;49.446;8.576;2023-09-19T06:49:06;100370.94;;;23.26;52.20
38227;BME280;24026;49.446;8.576;2023-09-19T06:51:27;100373.66;;;23.26;52.11
38227;BME280;24026;49.446;8.576;2023-09-19T06:53:48;100370.63;;;23.27;52.00
38227;BME280;24026;49.446;8.576;2023-09-19T06:56:08;100370.28;;;23.29;52.14
38227;BME280;24026;49.446;8.576;2023-09-19T06:58:28;100382.72;;;23.30;51.80
38227;BME280;24026;49.446;8.576;2023-09-19T07:00:49;100379.66;;;23.31;51.85
38227;BME280;24026;49.446;8.576;2023-09-19T07:03:10;100379.34;;;23.33;51.70
38227;BME280;24026;49.446;8.576;2023-09-19T07:05:34;100380.13;;;23.34;51.73
38227;BME280;24026;49.446;8.576;2023-09-19T07:07:58;100384.44;;;23.35;51.62
38227;BME280;24026;49.446;8.576;2023-09-19T07:10:19;100383.66;;;23.34;51.52
38227;BME280;24026;49.446;8.576;2023-09-19T07:12:40;100392.25;;;23.36;51.37
38227;BME280;24026;49.446;8.576;2023-09-19T07:15:02;100393.84;;;23.37;51.33
38227;BME280;24026;49.446;8.576;2023-09-19T07:17:23;100397.34;;;23.38;51.26
38227;BME280;24026;49.446;8.576;2023-09-19T07:19:44;100394.31;;;23.39;51.33
38227;BME280;24026;49.446;8.576;2023-09-19T07:22:05;100406.72;;;23.40;51.24
38227;BME280;24026;49.446;8.576;2023-09-19T07:24:28;100402.13;;;23.41;51.11
38227;BME280;24026;49.446;8.576;2023-09-19T07:26:49;100405.28;;;23.43;51.10
38227;BME280;24026;49.446;8.576;2023-09-19T07:29:11;100414.22;;;23.43;51.13
38227;BME280;24026;49.446;8.576;2023-09-19T07:31:31;100407.69;;;23.44;51.06
38227;BME280;24026;49.446;8.576;2023-09-19T07:33:52;100420.91;;;23.46;50.92
38227;BME280;24026;49.446;8.576;2023-09-19T07:36:13;100415.16;;;23.47;50.81
38227;BME280;24026;49.446;8.576;2023-09-19T07:38:34;100424.88;;;23.48;51.11
38227;BME280;24026;49.446;8.576;2023-09-19T07:41:01;100419.94;;;23.51;50.61
38227;BME280;24026;49.446;8.576;2023-09-19T07:43:22;100426.16;;;23.51;50.61
38227;BME280;24026;49.446;8.576;2023-09-19T07:45:43;100429.66;;;23.52;50.65
38227;BME280;24026;49.446;8.576;2023-09-19T07:48:04;100440.50;;;23.52;50.70
38227;BME280;24026;49.446;8.576;2023-09-19T07:50:26;100440.50;;;23.52;50.53
38227;BME280;24026;49.446;8.576;2023-09-19T07:52:48;100446.69;;;23.52;50.47
38227;BME280;24026;49.446;8.576;2023-09-19T07:55:11;100439.38;;;23.53;50.50
38227;BME280;24026;49.446;8.576;2023-09-19T07:57:36;100429.00;;;23.55;50.46
38227;BME280;24026;49.446;8.576;2023-09-19T07:59:57;100434.09;;;23.56;50.48
38227;BME280;24026;49.446;8.576;2023-09-19T08:02:17;100441.13;;;23.57;50.53
38227;BME280;24026;49.446;8.576;2023-09-19T08:04:38;100435.34;;;23.59;50.30
38227;BME280;24026;49.446;8.576;2023-09-19T08:06:59;100438.88;;;23.59;50.03
38227;BME280;24026;49.446;8.576;2023-09-19T08:09:20;100443.16;;;23.60;49.88
38227;BME280;24026;49.446;8.576;2023-09-19T08:11:41;100439.66;;;23.60;49.44
38227;BME280;24026;49.446;8.576;2023-09-19T08:14:01;100448.56;;;23.60;49.56
38227;BME280;24026;49.446;8.576;2023-09-19T08:16:22;100450.50;;;23.60;49.05
38227;BME280;24026;49.446;8.576;2023-09-19T08:18:48;100461.69;;;23.58;48.85
38227;BME280;24026;49.446;8.576;2023-09-19T08:21:15;100455.78;;;23.56;48.83
38227;BME280;24026;49.446;8.576;2023-09-19T08:23:38;100465.03;;;23.55;48.78
38227;BME280;24026;49.446;8.576;2023-09-19T08:25:59;100468.06;;;23.54;48.84
38227;BME280;24026;49.446;8.576;2023-09-19T08:28:24;100468.41;;;23.52;48.34
38227;BME280;24026;49.446;8.576;2023-09-19T08:30:47;100470.66;;;23.50;48.20
38227;BME280;24026;49.446;8.576;2023-09-19T08:33:07;100478.00;;;23.49;48.22
38227;BME280;24026;49.446;8.576;2023-09-19T08:35:28;100477.22;;;23.49;48.10
38227;BME280;24026;49.446;8.576;2023-09-19T08:37:48;100482.97;;;23.47;47.79
38227;BME280;24026;49.446;8.576;2023-09-19T08:40:10;100474.81;;;23.47;47.80
38227;BME280;24026;49.446;8.576;2023-09-19T08:42:56;100486.00;;;23.46;47.98
38227;BME280;24026;49.446;8.576;2023-09-19T08:45:17;100486.00;;;23.46;47.72
38227;BME280;24026;49.446;8.576;2023-09-19T08:47:45;100485.19;;;23.45;47.50
38227;BME280;24026;49.446;8.576;2023-09-19T08:50:25;100483.59;;;23.44;47.10
38227;BME280;24026;49.446;8.576;2023-09-19T08:52:47;100482.00;;;23.43;47.02
38227;BME280;24026;49.446;8.576;2023-09-19T08:55:14;100489.34;;;23.43;46.77
38227;BME280;24026;49.446;8.576;2023-09-19T08:57:41;100501.31;;;23.42;46.20
38227;BME280;24026;49.446;8.576;2023-09-19T09:00:04;100478.03;;;23.41;46.19
38227;BME280;24026;49.446;8.576;2023-09-19T09:02:37;100488.41;;;23.39;45.41
38227;BME280;24026;49.446;8.576;2023-09-19T09:05:01;100485.22;;;23.37;45.01
38227;BME280;24026;49.446;8.576;2023-09-19T09:07:26;100483.97;;;23.34;45.46
38227;BME280;24026;49.446;8.576;2023-09-19T09:09:48;100489.41;;;23.34;45.61
38227;BME280;24026;49.446;8.576;2023-09-19T09:12:12;100487.47;;;23.35;45.67
38227;BME280;24026;49.446;8.576;2023-09-19T09:14:33;100487.47;;;23.35;45.95
38227;BME280;24026;49.446;8.576;2023-09-19T09:16:55;100491.78;;;23.36;45.50
38227;BME280;24026;49.446;8.576;2023-09-19T09:19:19;100493.34;;;23.37;45.24
38227;BME280;24026;49.446;8.576;2023-09-19T09:21:45;100503.56;;;23.40;45.07
38227;BME280;24026;49.446;8.576;2023-09-19T09:24:31;100486.97;;;23.41;44.99
38227;BME280;24026;49.446;8.576;2023-09-19T09:26:55;100492.06;;;23.43;44.86
38227;BME280;24026;49.446;8.576;2023-09-19T09:29:51;100493.31;;;23.45;44.66
38227;BME280;24026;49.446;8.576;2023-09-19T09:34:38;100488.06;;;23.49;44.31
38227;BME280;24026;49.446;8.576;2023-09-19T09:36:59;100500.94;;;23.52;44.55
38227;BME280;24026;49.446;8.576;2023-09-19T09:39:33;100490.59;;;23.54;44.28
38227;BME280;24026;49.446;8.576;2023-09-19T09:41:54;100492.97;;;23.56;44.38
38227;BME280;24026;49.446;8.576;2023-09-19T09:44:16;100494.22;;;23.58;44.29
38227;BME280;24026;49.446;8.576;2023-09-19T09:46:42;100492.47;;;23.62;44.30
38227;BME280;24026;49.446;8.576;2023-09-19T09:49:34;100494.84;;;23.64;44.24
38227;BME280;24026;49.446;8.576;2023-09-19T09:52:00;100502.31;;;23.67;44.30
38227;BME280;24026;49.446;8.576;2023-09-19T09:54:27;100500.09;;;23.69;43.78
38227;BME280;24026;49.446;8.576;2023-09-19T09:56:58;100490.03;;;23.70;44.05
38227;BME280;24026;49.446;8.576;2023-09-19T09:59:23;100485.72;;;23.68;43.28
38227;BME280;24026;49.446;8.576;2023-09-19T10:02:04;100487.63;;;23.68;43.33
38227;BME280;24026;49.446;8.576;2023-09-19T10:04:29;100479.03;;;23.66;43.56
38227;BME280;24026;49.446;8.576;2023-09-19T10:06:57;100490.69;;;23.66;43.77
38227;BME280;24026;49.446;8.576;2023-09-19T10:09:17;100477.09;;;23.66;43.36
38227;BME280;24026;49.446;8.576;2023-09-19T10:11:42;100469.28;;;23.65;43.11
38227;BME280;24026;49.446;8.576;2023-09-19T10:14:04;100480.47;;;23.63;43.08
38227;BME280;24026;49.446;8.576;2023-09-19T10:16:30;100476.97;;;23.63;43.13
38227;BME280;24026;49.446;8.576;2023-09-19T10:18:52;100475.38;;;23.62;43.13
38227;BME280;24026;49.446;8.576;2023-09-19T10:21:14;100469.94;;;23.62;43.09
38227;BME280;24026;49.446;8.576;2023-09-19T10:23:35;100466.78;;;23.60;42.87
38227;BME280;24026;49.446;8.576;2023-09-19T10:25:57;100464.06;;;23.60;42.73
38227;BME280;24026;49.446;8.576;2023-09-19T10:28:21;100471.41;;;23.59;42.87
38227;BME280;24026;49.446;8.576;2023-09-19T10:30:46;100466.00;;;23.59;42.95
38227;BME280;24026;49.446;8.576;2023-09-19T10:33:18;100454.31;;;23.59;42.52
38227;BME280;24026;49.446;8.576;2023-09-19T10:35:44;100455.94;;;23.60;42.51
38227;BME280;24026;49.446;8.576;2023-09-19T10:38:05;100457.84;;;23.59;42.65
38227;BME280;24026;49.446;8.576;2023-09-19T10:40:29;100458.63;;;23.60;42.63
38227;BME280;24026;49.446;8.576;2023-09-19T10:42:54;100461.81;;;23.62;42.34
38227;BME280;24026;49.446;8.576;2023-09-19T10:45:17;100467.22;;;23.62;42.23
38227;BME280;24026;49.446;8.576;2023-09-19T10:47:39;100461.81;;;23.62;41.86
38227;BME280;24026;49.446;8.576;2023-09-19T10:50:01;100469.94;;;23.62;41.69
38227;BME280;24026;49.446;8.576;2023-09-19T10:52:24;100475.03;;;23.63;41.36
38227;BME280;24026;49.446;8.576;2023-09-19T10:54:50;100466.59;;;23.65;41.19
38227;BME280;24026;49.446;8.576;2023-09-19T10:57:20;100468.50;;;23.64;41.18
38227;BME280;24026;49.446;8.576;2023-09-19T11:00:01;100461.81;;;23.62;41.05
38227;BME280;24026;49.446;8.576;2023-09-19T11:02:34;100469.63;;;23.63;40.81
38227;BME280;24026;49.446;8.576;2023-09-19T11:05:11;100456.88;;;23.64;40.74
38227;BME280;24026;49.446;8.576;2023-09-19T11:07:59;100460.38;;;23.64;40.60
38227;BME280;24026;49.446;8.576;2023-09-19T11:10:45;100458.44;;;23.65;40.83
38227;BME280;24026;49.446;8.576;2023-09-19T11:13:29;100454.28;;;23.67;40.79
38227;BME280;24026;49.446;8.576;2023-09-19T11:26:43;100444.97;;;23.77;40.03
38227;BME280;24026;49.446;8.576;2023-09-19T11:29:27;100435.69;;;23.78;39.59
38227;BME280;24026;49.446;8.576;2023-09-19T11:31:49;100447.84;;;23.81;39.61
38227;BME280;24026;49.446;8.576;2023-09-19T11:36:56;100426.63;;;23.83;39.25
38227;BME280;24026;49.446;8.576;2023-09-19T11:39:26;100442.56;;;23.84;39.36
38227;BME280;24026;49.446;8.576;2023-09-19T11:41:47;100437.94;;;23.85;39.29
38227;BME280;24026;49.446;8.576;2023-09-19T11:44:32;100427.06;;;23.85;39.11
38227;BME280;24026;49.446;8.576;2023-09-19T11:46:59;100427.84;;;23.85;38.99
38227;BME280;24026;49.446;8.576;2023-09-19T11:49:28;100424.03;;;23.86;39.02
38227;BME280;24026;49.446;8.576;2023-09-19T11:51:53;100418.28;;;23.88;39.06
38227;BME280;24026;49.446;8.576;2023-09-19T11:54:15;100422.44;;;23.85;39.01
38227;BME280;24026;49.446;8.576;2023-09-19T11:56:42;100421.31;;;23.86;39.06
38227;BME280;24026;49.446;8.576;2023-09-19T11:59:05;100412.84;;;23.88;38.95
38227;BME280;24026;49.446;8.576;2023-09-19T12:01:32;100414.13;;;23.91;38.79
38227;BME280;24026;49.446;8.576;2023-09-19T12:03:56;100413.75;;;23.92;38.90
38227;BME280;24026;49.446;8.576;2023-09-19T12:06:18;100408.00;;;23.94;38.99
38227;BME280;24026;49.446;8.576;2023-09-19T12:08:39;100410.72;;;23.94;38.99
38227;BME280;24026;49.446;8.576;2023-09-19T12:11:00;100414.69;;;23.96;39.15
38227;BME280;24026;49.446;8.576;2023-09-19T12:13:20;100404.63;;;23.97;38.68
38227;BME280;24026;49.446;8.576;2023-09-19T12:15:41;100408.63;;;23.99;38.87
38227;BME280;24026;49.446;8.576;2023-09-19T12:18:05;100399.34;;;24.00;38.75
38227;BME280;24026;49.446;8.576;2023-09-19T12:20:44;100404.09;;;24.03;38.72
38227;BME280;24026;49.446;8.576;2023-09-19T12:23:13;100401.06;;;24.05;38.63
38227;BME280;24026;49.446;8.576;2023-09-19T12:25:43;100397.22;;;24.06;38.81
38227;BME280;24026;49.446;8.576;2023-09-19T12:28:07;100389.53;;;24.08;38.58
38227;BME280;24026;49.446;8.576;2023-09-19T12:30:29;100402.44;;;24.11;38.59
38227;BME280;24026;49.446;8.576;2023-09-19T12:32:54;100402.13;;;24.13;38.54
38227;BME280;24026;49.446;8.576;2023-09-19T12:35:32;100399.06;;;24.14;38.44
38227;BME280;24026;49.446;8.576;2023-09-19T12:37:56;100380.53;;;24.16;38.25
38227;BME280;24026;49.446;8.576;2023-09-19T12:40:16;100388.34;;;24.18;37.83
38227;BME280;24026;49.446;8.576;2023-09-19T12:42:43;100379.53;;;24.21;37.58
38227;BME280;24026;49.446;8.576;2023-09-19T12:45:07;100367.66;;;24.26;38.00
38227;BME280;24026;49.446;8.576;2023-09-19T12:47:29;100380.09;;;24.27;38.20
38227;BME280;24026;49.446;8.576;2023-09-19T12:50:12;100373.22;;;24.29;37.49
38227;BME280;24026;49.446;8.576;2023-09-19T12:52:47;100374.47;;;24.32;37.58
38227;BME280;24026;49.446;8.576;2023-09-19T12:55:25;100372.19;;;24.34;37.44